Impacts METAR Board
IDs:

KLZZ - Lampasas Arpt, TX, US

Updated at: 1200 UTC 20 Oct 2021
Potential Impact None Slight Moderate High
Time 20/00Z 20/01Z 20/02Z 20/03Z 20/04Z 20/05Z 20/06Z 20/07Z 20/08Z 20/09Z 20/10Z 20/11Z 20/12Z
Temp73 69 67 66 65 64 64 63 63 64 66 67 67
Dewpt60 60 59 59 59 59 60 60 61 62 64 64 64
Altim29.98 29.99 30.00 30.01 30.03 30.04 30.04 30.04 30.05 30.05 30.06 30.06 30.07
VIS10 10 10 10 10 10 10 10 10 10 10 10 10
CIG-- -- -- -- -- -- -- -- 18 14 27 27 33
CoverCLRCLRCLRCLRCLRCLRCLRCLRBKNOVCOVCOVCOVC
FltCatVFRVFRVFRVFRVFRVFRVFRVFRMVFRMVFRMVFRMVFRVFR
WX--------------------------
WDir1600160160170150160018001901600
WSpd4 0 3 4 3 3 3 0 3 0 4 4 0
WGst-- -- -- -- -- -- -- -- -- -- -- -- --
Raw hourly METARs
KLZZ 192355Z AUTO 16004KT 10SM CLR 23/15 A2998 RMK AO2 T02250153 10258 20225
KLZZ 200055Z AUTO 00000KT 10SM CLR 21/15 A2999 RMK AO2 T02070153
KLZZ 200155Z AUTO 16003KT 10SM CLR 20/15 A3000 RMK AO2 T01950151
KLZZ 200255Z AUTO 16004KT 10SM CLR 19/15 A3001 RMK AO2 T01880151
KLZZ 200355Z AUTO 17003KT 10SM CLR 18/15 A3003 RMK AO2 T01810148
KLZZ 200455Z AUTO 15003KT 10SM CLR 18/15 A3004 RMK AO2 T01800150
KLZZ 200555Z AUTO 16003KT 10SM CLR 18/16 A3004 RMK AO2 T01800158 10225 20177 402580120
KLZZ 200655Z AUTO 00000KT 10SM CLR 17/16 A3004 RMK AO2 T01700157
KLZZ 200755Z AUTO 18003KT 10SM BKN018 17/16 A3005 RMK AO2 T01710161
KLZZ 200855Z AUTO 00000KT 10SM BKN014 OVC024 18/17 A3005 RMK AO2 T01790167
KLZZ 200955Z AUTO 19004KT 10SM SCT012 OVC027 19/18 A3006 RMK AO2 T01910175
KLZZ 201055Z AUTO 16004KT 10SM SCT010 OVC027 19/18 A3006 RMK AO2 T01930177
KLZZ 201155Z AUTO 00000KT 10SM SCT010 OVC033 19/18 A3007 RMK AO2 T01920180 10195 20170